• Join FlightAware (Why Join?)
  • Login
  • US Flag 
06:19AM EDT


 

Airport Tracker/Info


-or-


 

Live Flight TrackerFlight Track Log ✈ PDT4314 ✈ 23-Oct-2013 ✈ KPHL - KBGM

Flight Track Log - Related Links

Times and Time Zones

All times are in EDT time to prevent confusion due to time zone crossing. See the PDT4314 flight status page for this flight to view local times or setup timezone preferences in your user account.

Time Position Orientation Groundspeed Altitude Reporting Facility
EDT Latitude Longitude Course Direction KTS MPH feet Rate Location/Type
05:24PM 39.9000 -75.2333 311° West 107 123 600  Level Philadelphia TRACON
05:25PM 39.9000 -75.2833 270° West 125 144 2,000 1,380 Climbing Philadelphia TRACON
05:26PM 40.0377 -75.2915 339° North  Level Estimated
05:26PM 39.9167 -75.3167 303° West 132 152 3,400  Level Philadelphia TRACON
05:27PM 40.0929 -75.3084 323° Northwest  Level Estimated
05:27PM 39.9500 -75.3500 323° Northwest 144 166 4,500  Level Philadelphia TRACON
05:28PM 40.1480 -75.3253 311° West  Level Estimated
05:28PM 39.9833 -75.3667 339° North 152 175 6,100  Level Philadelphia TRACON
05:28PM 40.0042 -75.3914 318° Northwest 147 169 6,800 1,320 Climbing New York Center
05:29PM 40.2032 -75.3423 311° West  Level Estimated
05:29PM 40.0428 -75.4211 329° Northwest 153 176 8,400  Level New York Center
05:30PM 40.0769 -75.4503 327° Northwest 166 191 9,100 300 Climbing New York Center
05:31PM 40.1297 -75.4892 331° Northwest 189 217 9,100  Level New York Center
05:32PM 40.1803 -75.5225 333° Northwest 210 242 9,100 240 Level New York Center
05:33PM 40.2369 -75.5700 327° Northwest 220 253 9,600 720 Climbing New York Center
05:34PM 40.2681 -75.6211 309° West 204 235 10,600 960 Climbing New York Center
05:35PM 40.3033 -75.6725 312° West 199 229 11,600 720 Climbing New York Center
05:36PM 40.3428 -75.7325 311° West 199 229 12,100 240 Climbing New York Center
05:37PM 40.3906 -75.7822 322° Northwest 212 244 12,100  Level New York Center
05:38PM 40.4542 -75.8089 342° North 225 259 12,100  Level New York Center
05:39PM 40.5092 -75.8372 339° North 235 270 12,100 -60 Level New York Center
05:40PM 40.5658 -75.8769 332° Northwest 235 270 12,000  Descending New York Center
05:41PM 40.6381 -75.8933 350° North 230 265 12,100  Climbing New York Center
05:42PM 40.7047 -75.8900 North 235 270 12,000  Descending New York Center
05:43PM 40.7711 -75.8978 355° North 235 270 12,100  Climbing New York Center
05:44PM 40.8289 -75.9131 349° North 235 270 12,100  Level New York Center
05:45PM 40.8972 -75.9211 355° North 235 270 12,100  Level New York Center
05:46PM 40.9725 -75.9158 North 235 270 12,100 -360 Level New York Center
05:47PM 41.0372 -75.9153 360° North 242 278 11,400 -660 Descending New York Center
05:48PM 41.1100 -75.9153 360° North 253 291 10,800 -720 Descending New York Center
05:49PM 41.1867 -75.9239 355° North 253 291 10,000 -420 Descending New York Center
05:50PM 41.2511 -75.9258 359° North 248 285 10,000  Level New York Center
05:51PM 41.3156 -75.9281 359° North 238 274 10,100  Climbing New York Center
05:52PM 41.3783 -75.9247 North 227 261 10,100 -120 Level New York Center
05:53PM 41.4425 -75.9322 355° North 227 261 9,900 -480 Descending New York Center
05:54PM 41.5069 -75.9400 355° North 222 255 9,200 -780 Descending New York Center
05:55PM 41.5731 -75.9506 353° North 233 268 8,400 -600 Descending New York Center
05:56PM 41.6372 -75.9611 353° North 233 268 8,100 -240 Descending New York Center
05:57PM 41.6917 -75.9489 10° North 228 262 8,000 -300 Descending New York Center
05:58PM 41.7494 -75.9144 24° Northeast 221 254 7,500 -900 Descending New York Center
05:59PM 41.8158 -75.8722 25° Northeast 232 267 6,200 -1,200 Descending New York Center
06:00PM 41.8797 -75.8408 20° North 237 273 5,100 -1,080 Descending New York Center
06:01PM 41.9414 -75.8094 21° North 237 273 4,100 -600 Descending New York Center
06:02PM 41.9975 -75.8136 357° North 222 255 3,900 -120 Descending New York Center
06:03PM 42.0500 -75.8511 332° Northwest 209 241 3,900  Level New York Center
06:04PM 42.1022 -75.8914 330° Northwest 209 241 3,900 -300 Level New York Center
06:05PM 42.1325 -75.9189 326° Northwest 173 199 3,300 -660 Descending New York Center
06:06PM 42.1606 -75.9408 330° Northwest 137 158 2,600 -600 Descending New York Center
06:07PM 42.1847 -75.9622 327° Northwest 125 144 2,100 -540 Descending New York Center